Time;durP1;ratioP1;P1;durP2;ratioP2;P2;SDS_P1;SDS_P2;PMS_P1;PMS_P2;Temp;Humidity;BMP_temperature;BMP_pressure;BME280_temperature;BME280_humidity;BME280_pressure;Samples;Min_cycle;Max_cycle;Signal;HPM_P1;HPM_P2
2022/05/16 00:01:54;;;;;;;5.32;2.58;;;16.70;65.20;;;;;;5064545;28;20037;-68
2022/05/16 00:04:21;;;;;;;7.22;2.28;;;16.70;65.40;;;;;;5069279;28;20067;-66
2022/05/16 00:06:49;;;;;;;5.55;1.90;;;16.60;65.50;;;;;;5068654;28;20062;-65
2022/05/16 00:09:16;;;;;;;5.13;2.28;;;16.60;65.80;;;;;;5068971;28;20040;-67
2022/05/16 00:11:43;;;;;;;6.00;1.58;;;16.60;66.10;;;;;;5051514;28;20447;-66
2022/05/16 00:14:11;;;;;;;3.42;2.08;;;16.50;66.30;;;;;;5069685;28;20041;-67
2022/05/16 00:16:38;;;;;;;5.70;2.03;;;16.50;66.40;;;;;;5068954;28;20128;-66
2022/05/16 00:19:05;;;;;;;4.70;2.08;;;16.50;66.70;;;;;;5069068;28;20112;-66
2022/05/16 00:21:36;;;;;;;4.68;2.20;;;16.50;66.70;;;;;;5068380;28;20044;-64
2022/05/16 00:24:07;;;;;;;3.88;1.75;;;16.40;66.60;;;;;;5067514;28;20044;-68
2022/05/16 00:26:34;;;;;;;4.55;1.83;;;16.50;66.70;;;;;;5068618;28;20050;-68
2022/05/16 00:29:01;;;;;;;5.78;2.17;;;16.40;66.80;;;;;;5048024;28;20456;-68
2022/05/16 00:31:28;;;;;;;5.00;2.30;;;16.40;66.90;;;;;;5067722;28;20040;-68
2022/05/16 00:33:55;;;;;;;4.95;2.00;;;16.30;67.00;;;;;;5066467;28;20107;-68
2022/05/16 00:36:22;;;;;;;6.05;2.97;;;16.30;67.20;;;;;;5064332;28;20406;-65
2022/05/16 00:38:50;;;;;;;3.85;2.17;;;16.20;67.20;;;;;;5065713;28;20048;-68
2022/05/16 00:41:18;;;;;;;3.40;2.20;;;16.20;67.20;;;;;;5065490;28;20059;-67
2022/05/16 00:43:51;;;;;;;3.72;2.25;;;16.20;67.30;;;;;;5067226;28;20066;-67
2022/05/16 00:46:18;;;;;;;4.38;2.03;;;16.10;67.50;;;;;;5065233;28;20045;-66
2022/05/16 00:48:45;;;;;;;4.57;2.03;;;16.10;67.70;;;;;;5066311;28;20426;-67
2022/05/16 00:51:16;;;;;;;9.43;2.42;;;16.10;67.80;;;;;;5067514;28;20115;-67
2022/05/16 00:53:45;;;;;;;5.05;2.20;;;16.10;67.80;;;;;;5066953;28;20075;-67
2022/05/16 00:56:12;;;;;;;3.78;2.03;;;16.00;67.80;;;;;;5049033;28;20049;-66
2022/05/16 00:58:42;;;;;;;6.72;2.60;;;16.00;67.80;;;;;;5061773;28;20052;-67
2022/05/16 01:06:38;;;;;;;6.85;2.45;;;16.10;67.10;;;;;;5067145;28;20048;-66
2022/05/16 01:09:05;;;;;;;8.23;2.20;;;16.10;66.80;;;;;;5067850;28;20047;-66
2022/05/16 01:11:33;;;;;;;4.80;2.33;;;16.10;66.60;;;;;;5065595;28;20068;-66
2022/05/16 01:14:04;;;;;;;3.70;1.98;;;16.10;66.60;;;;;;5068391;28;20063;-67
2022/05/16 01:16:30;;;;;;;4.40;1.98;;;16.10;66.60;;;;;;5061948;28;20564;-67
2022/05/16 01:18:57;;;;;;;5.35;2.45;;;16.00;66.60;;;;;;5068268;28;20047;-68
2022/05/16 01:21:32;;;;;;;5.13;2.30;;;16.00;66.60;;;;;;5067146;28;20056;-67
2022/05/16 01:24:05;;;;;;;4.47;2.08;;;16.00;66.60;;;;;;5065300;28;20040;-67
2022/05/16 01:26:33;;;;;;;7.85;2.63;;;16.00;66.80;;;;;;5067117;28;20040;-67
2022/05/16 01:29:00;;;;;;;6.40;2.13;;;16.00;66.80;;;;;;5066683;28;20413;-67
2022/05/16 01:31:28;;;;;;;3.92;1.90;;;15.90;66.70;;;;;;5066318;28;20032;-67
2022/05/16 01:33:55;;;;;;;3.63;2.33;;;16.00;66.60;;;;;;5066670;28;20106;-67
2022/05/16 01:36:22;;;;;;;5.13;2.03;;;15.90;66.60;;;;;;5066224;28;20506;-67
2022/05/16 01:38:49;;;;;;;4.97;2.25;;;15.90;66.50;;;;;;5065700;28;20047;-67
2022/05/16 01:41:19;;;;;;;9.07;1.90;;;15.90;66.50;;;;;;5066570;28;20080;-66
2022/05/16 01:43:48;;;;;;;5.45;1.95;;;15.90;66.60;;;;;;5049996;28;20405;-66
2022/05/16 01:46:21;;;;;;;8.57;2.20;;;15.90;66.60;;;;;;5065588;28;20036;-66
2022/05/16 02:30:55;;;;;;;6.45;2.17;;;15.40;69.00;;;;;;4930011;22;20056;-67
2022/05/16 02:33:23;;;;;;;5.07;2.25;;;15.40;68.90;;;;;;5011062;28;20052;-70
2022/05/16 02:35:51;;;;;;;5.00;2.17;;;15.30;69.10;;;;;;5010533;28;20054;-68
2022/05/16 02:38:20;;;;;;;7.13;2.40;;;15.30;69.20;;;;;;5010752;28;20404;-68
2022/05/16 02:40:49;;;;;;;6.28;2.60;;;15.30;69.40;;;;;;5011404;28;20041;-67
2022/05/16 02:43:16;;;;;;;4.03;1.90;;;15.20;69.40;;;;;;5012636;28;20050;-66
2022/05/16 02:45:43;;;;;;;5.57;2.10;;;15.20;69.60;;;;;;5012723;28;20054;-69
2022/05/16 02:48:11;;;;;;;6.35;2.20;;;15.10;69.60;;;;;;5011292;28;20046;-67
2022/05/16 02:50:39;;;;;;;6.18;2.38;;;15.10;69.60;;;;;;5011669;28;20486;-68
2022/05/16 02:53:07;;;;;;;4.70;2.10;;;15.10;69.50;;;;;;5011538;28;20069;-68
2022/05/16 02:55:34;;;;;;;6.00;2.00;;;15.10;69.50;;;;;;5008745;28;20160;-68
2022/05/16 02:58:01;;;;;;;8.57;2.83;;;15.20;69.20;;;;;;5011418;28;20494;-68
2022/05/16 03:00:31;;;;;;;4.22;2.17;;;15.10;69.30;;;;;;5008627;28;20038;-67
2022/05/16 03:02:58;;;;;;;6.63;2.30;;;15.10;69.10;;;;;;5010536;28;20041;-67
2022/05/16 03:05:27;;;;;;;7.53;2.65;;;15.10;69.10;;;;;;5007555;28;20060;-68
2022/05/16 03:07:54;;;;;;;4.32;2.13;;;15.10;69.00;;;;;;5013324;28;20038;-68
2022/05/16 03:10:21;;;;;;;6.07;2.10;;;15.20;68.90;;;;;;5010082;28;20117;-69
2022/05/16 03:12:49;;;;;;;7.97;2.50;;;15.20;68.60;;;;;;5010552;28;20046;-68
2022/05/16 03:15:17;;;;;;;5.00;2.78;;;15.20;68.80;;;;;;5011441;28;20040;-69
2022/05/16 03:17:45;;;;;;;4.45;2.40;;;15.10;69.00;;;;;;5011905;28;20049;-69
2022/05/16 03:20:15;;;;;;;5.95;2.20;;;15.10;69.30;;;;;;5012810;28;20049;-68
2022/05/16 03:22:43;;;;;;;6.00;2.33;;;15.00;69.50;;;;;;5009440;28;20403;-68
2022/05/16 03:25:11;;;;;;;4.70;2.60;;;15.00;69.80;;;;;;5003346;28;20503;-68
2022/05/16 03:27:39;;;;;;;4.70;2.45;;;15.00;69.90;;;;;;5006294;28;20038;-68
2022/05/16 03:30:10;;;;;;;8.38;2.60;;;15.00;69.90;;;;;;4989308;28;20051;-69
2022/05/16 03:32:37;;;;;;;7.65;2.60;;;15.00;70.00;;;;;;4984206;28;20049;-69
2022/05/16 03:35:05;;;;;;;4.65;2.15;;;15.00;70.20;;;;;;4983929;28;20483;-68
2022/05/16 03:37:32;;;;;;;7.43;2.47;;;14.90;70.40;;;;;;4984821;28;20131;-69
2022/05/16 03:42:59;;;;;;;;;;;14.90;70.80;;;;;;4923460;29;20889;-69
2022/05/16 03:45:26;;;;;;;4.53;2.25;;;14.90;70.90;;;;;;4926315;29;19949;-69
2022/05/16 03:47:53;;;;;;;5.82;2.30;;;14.90;70.70;;;;;;4954642;28;20159;-69
2022/05/16 03:50:20;;;;;;;5.93;2.60;;;14.90;71.00;;;;;;4982999;28;20042;-69
2022/05/16 03:52:47;;;;;;;9.05;2.65;;;14.90;71.00;;;;;;4977317;28;20050;-68
2022/05/16 03:55:17;;;;;;;8.48;2.70;;;14.90;71.00;;;;;;4975136;28;20042;-69
2022/05/16 03:57:44;;;;;;;6.00;2.75;;;14.90;71.00;;;;;;4975329;28;21534;-68
2022/05/16 04:00:15;;;;;;;6.85;2.70;;;15.00;71.00;;;;;;4975793;28;20269;-69
2022/05/16 04:02:42;;;;;;;;;;;15.00;71.00;;;;;;4973342;28;20975;-69
2022/05/16 04:05:10;;;;;;;5.43;2.20;;;15.00;70.90;;;;;;4976820;28;20013;-68
2022/05/16 04:07:37;;;;;;;5.75;2.47;;;15.10;70.70;;;;;;4978358;28;20484;-68
2022/05/16 04:10:06;;;;;;;6.85;2.50;;;15.10;70.70;;;;;;4982991;28;20065;-67
2022/05/16 04:12:35;;;;;;;6.13;2.40;;;15.10;70.80;;;;;;4981158;28;20162;-69
2022/05/16 04:15:03;;;;;;;4.68;2.03;;;15.10;70.90;;;;;;4981449;28;20089;-68
2022/05/16 04:17:30;;;;;;;7.10;2.72;;;15.10;70.90;;;;;;4977704;28;20046;-68
2022/05/16 04:19:57;;;;;;;5.80;2.80;;;15.20;70.70;;;;;;4975405;28;20053;-69
2022/05/16 04:22:24;;;;;;;5.20;2.75;;;15.20;70.60;;;;;;4976486;28;20046;-68
2022/05/16 04:24:51;;;;;;;5.68;2.83;;;15.20;70.80;;;;;;4976983;28;20512;-68
2022/05/16 04:27:18;;;;;;;5.70;2.40;;;15.20;70.90;;;;;;4976020;28;20100;-69
2022/05/16 04:29:46;;;;;;;6.38;2.97;;;15.20;70.70;;;;;;4975732;28;20132;-68
2022/05/16 04:32:13;;;;;;;7.85;3.03;;;15.30;70.70;;;;;;4976345;28;20443;-71
2022/05/16 04:34:41;;;;;;;7.97;2.83;;;15.30;70.70;;;;;;4977579;28;20038;-68
2022/05/16 04:37:08;;;;;;;6.60;2.38;;;15.30;70.50;;;;;;4976174;28;20046;-68
2022/05/16 04:39:35;;;;;;;6.05;2.45;;;15.40;70.40;;;;;;4974247;28;20461;-69
2022/05/16 04:44:47;;;;;;;6.55;2.70;;;15.30;70.90;;;;;;4974979;28;20047;-69
2022/05/16 04:47:14;;;;;;;5.20;2.40;;;15.30;71.30;;;;;;4978333;28;20826;-69
2022/05/16 04:49:42;;;;;;;4.75;2.53;;;15.30;71.20;;;;;;4977441;28;20348;-69
2022/05/16 04:52:11;;;;;;;8.57;2.67;;;15.30;71.30;;;;;;4976639;28;20047;-69
2022/05/16 04:54:38;;;;;;;5.20;3.10;;;15.30;71.40;;;;;;4978435;28;20074;-69
2022/05/16 04:57:05;;;;;;;4.18;2.03;;;15.40;71.70;;;;;;4977279;28;20046;-68
2022/05/16 04:59:32;;;;;;;6.03;2.38;;;15.40;71.70;;;;;;4976366;28;20057;-69
2022/05/16 05:02:01;;;;;;;6.57;2.78;;;15.40;71.70;;;;;;4973143;28;20113;-68
2022/05/16 05:04:28;;;;;;;4.72;2.40;;;15.50;71.50;;;;;;4974107;28;20034;-68
2022/05/16 05:06:55;;;;;;;6.85;2.13;;;15.50;71.70;;;;;;4976895;28;20046;-67
2022/05/16 05:09:22;;;;;;;5.72;2.65;;;15.60;71.60;;;;;;4978095;28;20543;-68
2022/05/16 05:14:34;;;;;;;4.68;2.60;;;15.70;71.10;;;;;;4975767;28;20725;-68
2022/05/16 05:17:03;;;;;;;3.80;2.28;;;15.70;70.90;;;;;;4976155;28;20061;-67
2022/05/16 05:19:31;;;;;;;9.20;2.60;;;15.80;71.00;;;;;;4977083;28;20145;-68
2022/05/16 05:21:58;;;;;;;6.47;2.45;;;15.80;71.30;;;;;;4977632;28;20042;-69
2022/05/16 05:24:25;;;;;;;7.78;2.53;;;15.80;71.40;;;;;;4976788;28;20062;-68
2022/05/16 05:26:52;;;;;;;4.85;2.30;;;15.80;71.50;;;;;;4978644;28;20043;-67
2022/05/16 05:29:20;;;;;;;5.85;2.13;;;15.80;71.60;;;;;;4979267;28;20150;-68
2022/05/16 05:31:47;;;;;;;5.20;2.70;;;15.80;71.90;;;;;;4972979;28;20061;-69
2022/05/16 05:34:16;;;;;;;7.78;2.45;;;15.80;72.10;;;;;;4961094;28;20073;-69
2022/05/16 05:36:43;;;;;;;6.57;2.15;;;15.90;72.10;;;;;;4974162;28;20158;-69
2022/05/16 05:39:13;;;;;;;5.50;2.60;;;15.90;72.20;;;;;;4974789;28;20058;-69
2022/05/16 05:41:40;;;;;;;7.40;2.60;;;15.80;72.30;;;;;;4976790;28;20511;-68
2022/05/16 05:44:07;;;;;;;6.00;2.22;;;15.90;72.40;;;;;;4976030;28;20035;-68
2022/05/16 05:46:37;;;;;;;3.90;2.15;;;15.90;72.50;;;;;;4976261;28;20046;-69
2022/05/16 05:49:05;;;;;;;5.90;2.13;;;15.90;72.70;;;;;;4975079;28;20039;-68
2022/05/16 05:51:33;;;;;;;8.13;2.30;;;16.00;72.70;;;;;;4972053;28;20045;-69
2022/05/16 05:54:00;;;;;;;5.32;2.70;;;16.10;72.70;;;;;;4973568;28;20046;-69
2022/05/16 05:56:28;;;;;;;5.90;2.35;;;16.10;72.90;;;;;;4976648;28;20053;-69
2022/05/16 05:58:55;;;;;;;6.43;2.50;;;16.10;72.90;;;;;;4976178;28;20035;-69
2022/05/16 06:01:23;;;;;;;6.50;2.90;;;16.10;73.20;;;;;;4976553;28;20043;-69
2022/05/16 06:03:50;;;;;;;7.78;2.60;;;16.20;73.30;;;;;;4977350;28;20070;-70
2022/05/16 06:06:17;;;;;;;9.05;2.72;;;16.20;73.60;;;;;;4975888;28;20077;-69
2022/05/16 06:08:46;;;;;;;7.13;2.50;;;16.30;73.90;;;;;;4975392;28;20419;-67
2022/05/16 06:11:13;;;;;;;8.35;2.50;;;16.30;74.50;;;;;;4978408;28;20487;-69
2022/05/16 06:13:40;;;;;;;6.32;2.65;;;16.30;75.20;;;;;;4976928;28;20487;-69
2022/05/16 06:16:08;;;;;;;5.43;2.17;;;16.30;75.80;;;;;;4976775;28;20432;-68
2022/05/16 06:18:35;;;;;;;7.50;2.47;;;16.30;76.00;;;;;;4981021;28;20039;-69
2022/05/16 06:21:02;;;;;;;7.85;2.55;;;16.40;76.60;;;;;;4980884;28;20070;-68
2022/05/16 06:23:29;;;;;;;9.73;2.25;;;16.40;76.50;;;;;;4979185;28;20122;-68
2022/05/16 06:25:59;;;;;;;6.38;2.35;;;16.40;76.10;;;;;;4980209;28;21023;-68
2022/05/16 06:28:34;;;;;;;5.88;2.22;;;16.40;76.40;;;;;;4979515;28;20067;-68
2022/05/16 06:31:01;;;;;;;9.77;2.58;;;16.50;76.80;;;;;;4977789;28;20046;-69
2022/05/16 06:33:28;;;;;;;6.53;2.35;;;16.60;77.10;;;;;;4975174;28;20046;-69
2022/05/16 06:35:56;;;;;;;8.98;2.60;;;16.60;77.60;;;;;;4978016;28;20046;-70
2022/05/16 06:38:25;;;;;;;8.80;3.85;;;16.60;77.70;;;;;;4981576;28;20051;-69
2022/05/16 06:40:52;;;;;;;9.43;3.50;;;16.80;78.00;;;;;;4979759;28;20054;-69
2022/05/16 06:43:23;;;;;;;7.95;3.17;;;16.80;78.20;;;;;;4979398;28;20050;-70
2022/05/16 06:45:49;;;;;;;;;;;16.90;78.50;;;;;;4979271;28;20053;-70
2022/05/16 06:48:17;;;;;;;10.13;3.78;;;17.00;78.40;;;;;;4980115;28;21750;-69
2022/05/16 06:50:45;;;;;;;5.78;3.40;;;17.00;78.70;;;;;;4980368;28;20081;-70
2022/05/16 06:53:14;;;;;;;11.82;3.33;;;17.10;78.80;;;;;;4978759;28;20132;-68
2022/05/16 06:55:41;;;;;;;11.02;3.80;;;17.20;78.80;;;;;;4977866;28;20507;-67
2022/05/16 06:58:08;;;;;;;8.32;2.67;;;17.40;78.40;;;;;;4980163;28;20034;-69
2022/05/16 07:00:37;;;;;;;9.98;3.05;;;17.60;78.80;;;;;;4975024;28;20053;-69
2022/05/16 07:03:05;;;;;;;10.18;3.17;;;17.70;78.80;;;;;;4976182;28;20048;-67
2022/05/16 07:05:33;;;;;;;12.90;3.70;;;17.80;78.20;;;;;;4977253;28;20081;-68
2022/05/16 07:08:00;;;;;;;12.45;2.92;;;17.90;77.60;;;;;;4978300;28;20061;-68
2022/05/16 07:10:27;;;;;;;9.30;2.75;;;17.90;76.90;;;;;;4978106;28;20051;-69
2022/05/16 07:12:55;;;;;;;10.32;3.08;;;18.00;77.00;;;;;;4980943;28;20047;-69
2022/05/16 07:15:22;;;;;;;8.18;2.83;;;18.10;76.90;;;;;;4964447;28;20452;-69
2022/05/16 07:17:51;;;;;;;9.25;3.28;;;18.10;76.80;;;;;;4979651;28;20057;-70
2022/05/16 07:20:18;;;;;;;7.97;2.75;;;18.10;76.20;;;;;;4976934;28;20467;-67
2022/05/16 07:22:48;;;;;;;6.40;2.38;;;18.10;75.90;;;;;;4978606;28;20038;-69
2022/05/16 07:25:17;;;;;;;6.80;3.08;;;18.10;76.20;;;;;;4978052;28;20049;-66
2022/05/16 07:27:59;;;;;;;7.77;3.17;;;18.10;76.10;;;;;;4975772;28;20046;-70
2022/05/16 07:30:27;;;;;;;6.47;2.67;;;18.10;76.00;;;;;;4979202;28;20059;-69
2022/05/16 07:32:57;;;;;;;5.93;2.65;;;18.10;76.00;;;;;;4977738;28;20038;-69
2022/05/16 07:35:27;;;;;;;7.32;3.15;;;18.10;76.20;;;;;;4982986;28;20054;-69
2022/05/16 07:37:55;;;;;;;6.85;2.70;;;18.00;76.20;;;;;;4982453;28;20043;-69
2022/05/16 07:40:24;;;;;;;5.38;2.83;;;18.00;76.10;;;;;;4976902;28;20054;-69
2022/05/16 07:42:52;;;;;;;8.88;2.75;;;17.90;76.10;;;;;;4975108;28;20177;-69
2022/05/16 07:45:19;;;;;;;4.82;2.22;;;17.90;76.30;;;;;;4978162;28;20483;-70
2022/05/16 07:47:48;;;;;;;8.10;2.72;;;17.80;76.60;;;;;;4975887;28;20507;-68
2022/05/16 07:50:17;;;;;;;4.80;2.58;;;17.80;77.00;;;;;;4976190;28;20046;-68
2022/05/16 07:52:48;;;;;;;8.27;2.65;;;17.70;77.40;;;;;;4975737;28;20035;-68
2022/05/16 07:55:15;;;;;;;6.88;2.70;;;17.70;77.50;;;;;;4975506;28;20121;-69
2022/05/16 07:57:42;;;;;;;6.47;2.80;;;17.70;77.70;;;;;;4978160;28;20072;-68
2022/05/16 08:00:11;;;;;;;7.63;3.55;;;17.70;78.10;;;;;;4974367;28;21758;-66
2022/05/16 08:02:39;;;;;;;8.68;3.17;;;17.70;78.80;;;;;;4978620;28;20046;-69
2022/05/16 08:05:08;;;;;;;6.80;3.33;;;17.80;79.60;;;;;;4977755;28;20046;-67
2022/05/16 08:10:29;;;;;;;6.13;2.55;;;17.90;79.60;;;;;;4975599;28;20057;-69
2022/05/16 08:10:31;;;;;;;7.72;2.60;;;17.90;80.10;;;;;;4976936;28;20046;-68
2022/05/16 08:13:00;;;;;;;5.43;3.08;;;17.90;80.00;;;;;;4976559;28;20077;-67
2022/05/16 08:15:27;;;;;;;6.40;2.70;;;18.00;80.70;;;;;;4977992;28;20044;-68
2022/05/16 08:17:54;;;;;;;10.20;3.60;;;18.10;80.50;;;;;;4980389;28;20406;-66
2022/05/16 08:20:21;;;;;;;7.63;2.83;;;18.10;80.80;;;;;;4976149;28;20039;-67
2022/05/16 08:22:51;;;;;;;8.00;3.05;;;18.10;81.10;;;;;;4976344;28;20065;-66
2022/05/16 08:25:18;;;;;;;7.30;2.93;;;18.10;80.90;;;;;;4978016;28;20054;-67
2022/05/16 08:27:45;;;;;;;7.82;3.35;;;18.10;81.00;;;;;;4976504;28;20564;-66
2022/05/16 08:30:13;;;;;;;5.75;2.95;;;18.20;81.00;;;;;;4975563;28;20059;-67
2022/05/16 08:32:41;;;;;;;7.20;2.95;;;18.30;81.60;;;;;;4978944;28;20043;-67
2022/05/16 08:35:10;;;;;;;9.00;3.83;;;18.30;81.00;;;;;;4974190;28;20035;-67
2022/05/16 08:40:32;;;;;;;5.78;3.10;;;18.40;81.10;;;;;;4975345;28;20181;-68
2022/05/16 08:43:05;;;;;;;7.22;3.35;;;18.40;81.50;;;;;;4975852;28;20056;-67
2022/05/16 08:45:35;;;;;;;6.95;2.80;;;18.50;81.40;;;;;;4974755;28;20056;-68
2022/05/16 08:48:09;;;;;;;7.60;3.40;;;18.50;81.40;;;;;;4976276;28;20072;-67
2022/05/16 08:50:41;;;;;;;7.35;3.35;;;18.50;81.10;;;;;;4975078;28;20051;-67
2022/05/16 08:53:14;;;;;;;9.57;3.88;;;18.50;80.80;;;;;;4975031;28;20383;-69
2022/05/16 08:55:48;;;;;;;10.80;3.38;;;18.60;81.40;;;;;;4975626;28;20034;-67
2022/05/16 08:58:20;;;;;;;8.95;2.80;;;18.60;80.60;;;;;;4975111;28;20697;-68
2022/05/16 09:00:51;;;;;;;8.18;3.60;;;18.70;80.70;;;;;;4975378;28;20504;-68
2022/05/16 09:03:22;;;;;;;6.13;2.95;;;18.80;80.70;;;;;;4975617;28;20074;-69
2022/05/16 09:05:53;;;;;;;9.88;2.80;;;18.90;79.90;;;;;;4969910;28;20049;-68
2022/05/16 09:08:32;;;;;;;8.82;3.33;;;18.90;80.20;;;;;;4975077;28;20125;-66
2022/05/16 09:11:07;;;;;;;9.32;4.00;;;19.00;79.80;;;;;;4974391;28;20862;-68
2022/05/16 09:13:50;;;;;;;10.15;4.18;;;19.10;79.60;;;;;;4971033;28;20047;-67
2022/05/16 09:16:29;;;;;;;6.90;3.60;;;19.40;79.80;;;;;;4975003;28;20133;-66
2022/05/16 09:19:04;;;;;;;8.20;3.50;;;19.60;79.40;;;;;;4977120;28;20411;-67
2022/05/16 09:21:40;;;;;;;11.63;3.30;;;19.70;79.60;;;;;;4974767;28;20054;-68
2022/05/16 09:24:12;;;;;;;6.28;3.47;;;19.90;78.90;;;;;;4974029;28;20113;-67
2022/05/16 09:26:50;;;;;;;11.05;4.57;;;20.10;79.50;;;;;;4973915;28;20042;-68
2022/05/16 09:29:24;;;;;;;9.60;4.30;;;20.20;78.50;;;;;;4970688;28;20077;-68
2022/05/16 09:31:55;;;;;;;11.98;4.78;;;20.40;78.30;;;;;;4974059;28;20047;-69
2022/05/16 09:34:22;;;;;;;7.95;3.70;;;20.60;77.20;;;;;;4974688;28;20566;-68
2022/05/16 09:36:50;;;;;;;9.27;3.72;;;20.70;77.60;;;;;;4976466;28;20050;-68
2022/05/16 09:39:20;;;;;;;8.00;3.53;;;20.90;76.20;;;;;;4979781;28;20053;-68
2022/05/16 09:41:56;;;;;;;9.60;4.07;;;21.00;76.70;;;;;;4978091;28;20050;-69
2022/05/16 09:44:28;;;;;;;10.77;4.32;;;21.10;76.00;;;;;;4979895;28;20047;-67
2022/05/16 09:47:21;;;;;;;9.65;4.22;;;21.20;76.30;;;;;;4978899;28;20030;-67
2022/05/16 09:50:09;;;;;;;10.77;4.43;;;21.30;76.00;;;;;;4977691;28;20141;-67
2022/05/16 09:52:45;;;;;;;6.63;3.58;;;21.40;75.00;;;;;;4979104;28;20038;-68
2022/05/16 09:55:24;;;;;;;8.80;4.10;;;21.50;74.30;;;;;;4981266;28;20132;-67
2022/05/16 09:57:56;;;;;;;9.50;5.05;;;21.60;73.60;;;;;;4977711;28;20073;-68
2022/05/16 10:00:38;;;;;;;8.20;5.20;;;21.60;72.90;;;;;;4978478;28;20050;-67
2022/05/16 10:03:24;;;;;;;9.25;5.70;;;21.70;72.60;;;;;;4980457;28;20480;-68
2022/05/16 10:05:53;;;;;;;9.95;6.35;;;21.80;72.40;;;;;;4978735;28;20054;-68
2022/05/16 10:08:30;;;;;;;13.45;5.32;;;21.90;71.80;;;;;;4978332;28;20557;-67
2022/05/16 10:10:59;;;;;;;9.45;3.97;;;22.00;68.70;;;;;;4978640;28;20043;-68
2022/05/16 10:13:27;;;;;;;7.20;3.42;;;22.10;68.30;;;;;;4981864;28;20130;-70
2022/05/16 10:15:57;;;;;;;6.63;3.57;;;22.20;66.90;;;;;;4981233;28;21227;-69
2022/05/16 10:18:26;;;;;;;5.40;3.45;;;22.30;65.80;;;;;;4983285;28;20056;-68
2022/05/16 10:20:58;;;;;;;5.10;2.88;;;22.40;66.20;;;;;;4976876;28;20499;-69
2022/05/16 10:23:29;;;;;;;8.23;2.72;;;22.50;64.90;;;;;;4979590;28;20124;-68
2022/05/16 10:26:01;;;;;;;5.22;2.65;;;22.60;62.50;;;;;;4979471;28;20042;-68
2022/05/16 10:28:32;;;;;;;5.75;2.65;;;22.60;63.40;;;;;;4979798;28;20042;-68
2022/05/16 10:33:48;;;;;;;5.40;2.67;;;22.70;62.60;;;;;;4978284;28;20054;-70
2022/05/16 10:36:25;;;;;;;4.88;1.92;;;22.80;62.30;;;;;;4981523;28;20042;-68
2022/05/16 10:38:58;;;;;;;6.13;2.58;;;22.90;61.10;;;;;;4978123;28;20039;-68
2022/05/16 10:41:33;;;;;;;6.78;2.50;;;22.90;61.70;;;;;;4977535;28;20137;-67
2022/05/16 10:44:13;;;;;;;6.38;2.40;;;23.00;60.30;;;;;;4978555;28;20672;-68
2022/05/16 10:46:44;;;;;;;6.47;2.40;;;23.00;60.30;;;;;;4976149;28;20141;-69
2022/05/16 10:49:16;;;;;;;6.22;2.22;;;23.10;60.60;;;;;;4976657;28;20043;-69
2022/05/16 10:51:50;;;;;;;5.97;2.60;;;23.20;59.80;;;;;;4979113;28;20046;-67
2022/05/16 10:54:20;;;;;;;5.57;2.35;;;23.20;59.20;;;;;;4977622;28;20046;-67
2022/05/16 10:57:21;;;;;;;4.18;2.20;;;23.20;59.30;;;;;;4978333;28;20050;-68
2022/05/16 11:00:05;;;;;;;7.38;3.17;;;23.30;59.30;;;;;;4956295;28;20054;-69
2022/05/16 11:02:55;;;;;;;4.82;2.40;;;23.30;58.60;;;;;;4978937;28;20105;-68
2022/05/16 11:05:34;;;;;;;5.55;2.97;;;23.40;57.80;;;;;;4976789;28;20078;-68
2022/05/16 11:08:09;;;;;;;6.45;2.13;;;23.50;57.50;;;;;;4975007;28;20070;-69
2022/05/16 11:10:42;;;;;;;5.40;2.63;;;23.50;57.30;;;;;;4979458;28;20046;-69
2022/05/16 11:13:19;;;;;;;5.35;2.10;;;23.60;57.40;;;;;;4977431;28;20056;-69
2022/05/16 11:15:54;;;;;;;5.75;2.13;;;23.50;57.50;;;;;;4976383;28;20492;-69
2022/05/16 11:18:31;;;;;;;5.15;2.13;;;23.50;57.40;;;;;;4980024;28;20122;-69
2022/05/16 11:21:08;;;;;;;4.35;2.17;;;23.60;57.10;;;;;;4977208;28;20097;-69
2022/05/16 11:23:47;;;;;;;5.97;2.60;;;23.60;56.80;;;;;;4979030;28;20043;-69
2022/05/16 11:26:20;;;;;;;6.88;2.90;;;23.60;56.80;;;;;;4980468;28;20927;-69
2022/05/16 11:32:00;;;;;;;4.18;2.55;;;23.60;56.80;;;;;;4975883;28;20043;-69
2022/05/16 11:34:36;;;;;;;7.45;2.47;;;23.60;57.00;;;;;;4979268;28;20054;-69
2022/05/16 11:37:13;;;;;;;5.85;2.75;;;23.60;57.30;;;;;;4980543;28;20038;-69
2022/05/16 11:39:46;;;;;;;4.40;2.40;;;23.70;56.90;;;;;;4982572;28;20077;-69
2022/05/16 11:42:20;;;;;;;5.78;2.20;;;23.70;56.40;;;;;;4980972;28;20122;-69
2022/05/16 11:45:04;;;;;;;8.27;2.47;;;23.70;56.20;;;;;;4977574;28;20035;-69
2022/05/16 11:47:37;;;;;;;8.35;3.17;;;23.90;55.90;;;;;;4957353;28;20046;-70
2022/05/16 11:50:12;;;;;;;5.40;2.65;;;23.80;55.80;;;;;;4975912;28;20050;-69
2022/05/16 11:52:45;;;;;;;4.80;2.40;;;23.90;56.00;;;;;;4976890;28;20042;-67
2022/05/16 12:00:54;;;;;;;6.05;2.72;;;23.90;56.10;;;;;;4974457;28;20077;-67
2022/05/16 12:03:23;;;;;;;8.05;2.58;;;23.90;56.00;;;;;;4984360;28;20054;-68
2022/05/16 12:05:53;;;;;;;5.50;2.60;;;23.90;56.00;;;;;;4983720;28;20051;-68
2022/05/16 12:08:42;;;;;;;4.32;2.40;;;23.90;55.90;;;;;;4984625;28;20039;-70
2022/05/16 12:11:22;;;;;;;7.40;2.42;;;23.90;56.20;;;;;;4983758;28;20409;-68
2022/05/16 12:14:02;;;;;;;5.63;2.22;;;23.90;56.20;;;;;;4983670;28;20152;-68
2022/05/16 12:16:32;;;;;;;6.13;2.80;;;24.00;56.20;;;;;;4983612;28;20042;-69
2022/05/16 12:19:18;;;;;;;;;;;24.00;56.00;;;;;;4983471;28;20470;-68
2022/05/16 12:21:59;;;;;;;6.78;2.53;;;24.00;56.00;;;;;;4983353;28;19961;-69
2022/05/16 12:24:30;;;;;;;4.95;2.60;;;24.00;56.20;;;;;;4982961;28;20042;-68
2022/05/16 12:27:26;;;;;;;6.88;2.58;;;24.00;56.20;;;;;;4983399;28;20070;-69
2022/05/16 12:29:56;;;;;;;6.43;2.83;;;24.10;56.10;;;;;;4982241;28;20053;-69
2022/05/16 12:32:46;;;;;;;6.50;2.30;;;24.10;56.30;;;;;;4982470;28;20093;-68
2022/05/16 12:35:16;;;;;;;4.60;2.33;;;24.10;56.20;;;;;;4983188;28;20065;-70
2022/05/16 12:37:43;;;;;;;6.18;3.80;;;24.10;56.70;;;;;;4983152;28;20046;-69
2022/05/16 12:40:16;;;;;;;7.15;3.47;;;24.10;56.50;;;;;;4982461;28;20492;-69
2022/05/16 12:43:19;;;;;;;6.28;3.00;;;24.20;56.70;;;;;;4982133;28;20069;-69
2022/05/16 12:46:19;;;;;;;6.40;2.83;;;24.20;56.20;;;;;;4980104;28;20046;-70
2022/05/16 12:49:13;;;;;;;5.30;2.53;;;24.20;56.10;;;;;;4966790;28;20575;-68
2022/05/16 12:51:59;;;;;;;3.90;2.22;;;24.10;56.10;;;;;;4981113;28;20053;-69
2022/05/16 12:55:12;;;;;;;8.93;3.08;;;24.10;56.30;;;;;;4977731;28;20144;-68
2022/05/16 12:57:52;;;;;;;5.97;2.50;;;24.10;56.40;;;;;;4975531;28;20088;-70
2022/05/16 13:00:22;;;;;;;5.68;2.45;;;24.10;56.40;;;;;;4980117;28;20473;-67
2022/05/16 13:03:00;;;;;;;5.18;2.75;;;24.10;56.40;;;;;;4979014;28;20498;-68
2022/05/16 13:05:36;;;;;;;7.22;3.50;;;24.00;56.60;;;;;;4977363;28;20146;-69
2022/05/16 13:08:15;;;;;;;6.47;2.83;;;24.00;56.80;;;;;;4936893;28;20046;-70
2022/05/16 13:10:52;;;;;;;7.70;3.17;;;24.00;56.80;;;;;;4981697;28;20046;-69
2022/05/16 13:14:05;;;;;;;6.45;2.80;;;24.00;57.30;;;;;;4978685;28;20137;-68
2022/05/16 13:16:36;;;;;;;11.77;2.60;;;23.90;58.00;;;;;;4973565;28;20112;-68
2022/05/16 13:19:08;;;;;;;7.47;2.63;;;23.80;58.80;;;;;;4975038;28;20112;-69
2022/05/16 13:21:38;;;;;;;5.15;2.35;;;23.60;60.20;;;;;;4978295;28;20042;-69
2022/05/16 13:24:13;;;;;;;4.93;2.75;;;23.50;61.60;;;;;;4976190;28;20055;-69
2022/05/16 13:29:33;;;;;;;4.43;2.05;;;23.10;63.90;;;;;;4975928;28;20472;-68
2022/05/16 13:32:08;;;;;;;5.93;2.00;;;23.00;65.70;;;;;;4973879;28;20053;-68
2022/05/16 13:34:37;;;;;;;3.83;2.03;;;22.80;66.90;;;;;;4977803;28;20046;-69
2022/05/16 13:37:07;;;;;;;4.57;1.92;;;22.60;68.50;;;;;;4981741;28;20488;-70
2022/05/16 13:39:40;;;;;;;3.95;1.60;;;22.40;69.30;;;;;;4982648;28;20047;-69
2022/05/16 13:42:08;;;;;;;3.65;1.75;;;22.30;68.50;;;;;;4982624;28;20053;-68
2022/05/16 13:44:36;;;;;;;6.47;1.85;;;22.30;69.10;;;;;;4981559;28;20051;-69
2022/05/16 13:47:04;;;;;;;5.32;2.30;;;22.20;70.00;;;;;;4980467;28;20057;-69
2022/05/16 13:49:32;;;;;;;5.70;1.98;;;22.10;71.80;;;;;;4981436;28;20042;-69
2022/05/16 13:52:01;;;;;;;4.55;2.00;;;22.10;71.50;;;;;;4981000;28;20053;-69
2022/05/16 13:54:30;;;;;;;5.57;2.47;;;22.10;71.70;;;;;;4980825;28;20602;-67
2022/05/16 13:57:00;;;;;;;7.45;2.28;;;22.00;72.50;;;;;;4982115;28;20046;-68
2022/05/16 13:59:30;;;;;;;7.35;2.50;;;21.80;73.20;;;;;;4982845;28;20054;-68
2022/05/16 14:01:59;;;;;;;;;;;21.90;72.30;;;;;;4978885;28;20500;-69
2022/05/16 14:04:30;;;;;;;10.15;3.05;;;21.90;71.70;;;;;;4981787;28;19926;-69
2022/05/16 14:07:04;;;;;;;8.23;2.70;;;22.10;70.90;;;;;;4981106;28;20570;-69
2022/05/16 14:09:42;;;;;;;9.95;2.60;;;22.10;71.40;;;;;;4980303;28;20519;-68
2022/05/16 14:12:17;;;;;;;4.30;2.28;;;22.10;72.10;;;;;;4980347;28;20093;-70
2022/05/16 14:14:44;;;;;;;4.55;2.15;;;22.10;71.90;;;;;;4977800;28;20113;-68
2022/05/16 14:17:40;;;;;;;5.70;2.25;;;22.10;71.70;;;;;;4960687;28;20039;-69
2022/05/16 14:20:12;;;;;;;5.45;2.80;;;22.20;71.20;;;;;;4981682;28;20054;-69
2022/05/16 14:22:44;;;;;;;9.00;3.28;;;22.40;70.80;;;;;;4985254;28;20050;-68